createdAt,value
2023-03-11T00:00:47.592Z,3.80
2023-03-11T00:02:21.063Z,3.70
2023-03-11T00:03:54.221Z,3.60
2023-03-11T00:05:30.096Z,3.50
2023-03-11T00:07:03.237Z,3.40
2023-03-11T00:08:36.350Z,3.60
2023-03-11T00:10:09.724Z,3.50
2023-03-11T00:11:44.210Z,3.40
2023-03-11T00:13:18.457Z,3.40
2023-03-11T00:14:50.753Z,3.40
2023-03-11T00:16:23.864Z,3.40
2023-03-11T00:17:57.395Z,3.40
2023-03-11T00:19:30.463Z,3.40
2023-03-11T00:21:03.800Z,3.30
2023-03-11T00:22:35.878Z,3.30
2023-03-11T00:24:09.351Z,3.20
2023-03-11T00:25:44.846Z,3.00
2023-03-11T00:27:19.401Z,3.10
2023-03-11T00:28:52.527Z,3.10
2023-03-11T00:30:25.638Z,3.00
2023-03-11T00:31:59.030Z,3.00
2023-03-11T00:33:32.415Z,3.00
2023-03-11T00:35:06.235Z,3.00
2023-03-11T00:36:39.364Z,2.90
2023-03-11T00:38:13.801Z,2.90
2023-03-11T00:39:46.909Z,2.80
2023-03-11T00:41:19.997Z,2.90
2023-03-11T00:42:53.567Z,2.80
2023-03-11T00:44:26.907Z,2.80
2023-03-11T00:46:00.053Z,2.80
2023-03-11T00:47:32.420Z,2.70
2023-03-11T00:49:05.554Z,2.70
2023-03-11T00:50:39.113Z,2.70
2023-03-11T00:52:12.174Z,2.70
2023-03-11T00:53:46.037Z,2.70
2023-03-11T00:55:22.292Z,2.70
2023-03-11T00:56:55.405Z,2.60
2023-03-11T00:58:30.746Z,2.60
2023-03-11T01:00:04.686Z,2.60
2023-03-11T01:01:37.908Z,2.60
2023-03-11T01:03:11.215Z,2.20
2023-03-11T01:04:44.485Z,2.70
2023-03-11T01:06:17.709Z,2.60
2023-03-11T01:07:51.521Z,2.60
2023-03-11T01:09:24.596Z,2.50
2023-03-11T01:10:57.757Z,2.50
2023-03-11T01:12:29.860Z,2.40
2023-03-11T01:14:04.375Z,2.50
2023-03-11T01:15:38.844Z,2.40
2023-03-11T01:17:12.150Z,2.40
2023-03-11T01:18:45.248Z,2.40
2023-03-11T01:20:18.581Z,2.40
2023-03-11T01:21:51.661Z,2.40
2023-03-11T01:23:24.789Z,2.40
2023-03-11T01:24:57.845Z,2.40
2023-03-11T01:26:30.893Z,2.30
2023-03-11T01:28:04.241Z,2.30
2023-03-11T01:29:37.763Z,2.20
2023-03-11T01:31:11.269Z,2.30
2023-03-11T01:32:44.081Z,2.20
2023-03-11T01:34:17.158Z,2.20
2023-03-11T01:35:50.470Z,2.20
2023-03-11T01:37:23.654Z,2.20
2023-03-11T01:38:56.821Z,2.10
2023-03-11T01:40:31.096Z,2.20
2023-03-11T01:42:06.633Z,2.10
2023-03-11T01:43:50.151Z,2.10
2023-03-11T01:46:03.977Z,2.10
2023-03-11T01:47:41.198Z,2.10
2023-03-11T01:49:16.023Z,2.20
2023-03-11T01:50:51.616Z,2.10
2023-03-11T01:52:24.957Z,2.20
2023-03-11T01:54:02.836Z,2.20
2023-03-11T01:55:36.605Z,2.20
2023-03-11T01:57:12.543Z,2.20
2023-03-11T01:58:49.985Z,3.00
2023-03-11T02:00:23.582Z,2.30
2023-03-11T02:02:02.186Z,2.30
2023-03-11T02:03:40.656Z,2.20
2023-03-11T02:05:14.201Z,2.30
2023-03-11T02:06:47.409Z,2.40
2023-03-11T02:08:20.527Z,2.30
2023-03-11T02:09:53.708Z,2.70
2023-03-11T02:11:30.654Z,2.30
2023-03-11T02:13:05.460Z,2.60
2023-03-11T02:14:42.788Z,2.40
2023-03-11T02:16:16.120Z,2.30
2023-03-11T02:17:49.998Z,1.90
2023-03-11T02:19:35.467Z,2.30
2023-03-11T02:38:40.116Z,2.10
2023-03-11T02:40:37.101Z,2.10
2023-03-11T02:42:14.842Z,2.00
2023-03-11T02:43:50.713Z,2.00
2023-03-11T02:45:25.808Z,2.00
2023-03-11T02:46:59.401Z,2.00
2023-03-11T02:48:33.051Z,2.00
2023-03-11T02:50:06.606Z,1.90
2023-03-11T02:51:39.688Z,1.90
2023-03-11T02:53:12.873Z,1.90
2023-03-11T02:54:46.189Z,1.90
2023-03-11T02:56:19.592Z,1.90
2023-03-11T02:57:51.739Z,1.90
2023-03-11T02:59:26.537Z,1.90
2023-03-11T03:00:59.998Z,1.90
2023-03-11T03:02:33.237Z,1.90
2023-03-11T03:04:06.452Z,1.90
2023-03-11T03:05:40.622Z,1.80
2023-03-11T03:07:13.814Z,1.90
2023-03-11T03:08:47.133Z,1.80
2023-03-11T03:10:21.095Z,1.70
2023-03-11T03:11:54.546Z,1.70
2023-03-11T03:13:26.945Z,1.60
2023-03-11T03:15:03.376Z,1.60
2023-03-11T03:16:36.577Z,1.60
2023-03-11T03:18:09.024Z,1.60
2023-03-11T03:19:42.146Z,1.60
2023-03-11T03:21:15.379Z,1.50
2023-03-11T03:22:47.608Z,1.50
2023-03-11T03:24:23.397Z,1.50
2023-03-11T03:25:56.567Z,1.50
2023-03-11T03:27:28.767Z,1.50
2023-03-11T03:29:01.842Z,1.50
2023-03-11T03:30:36.387Z,1.40
2023-03-11T03:32:10.116Z,1.40
2023-03-11T03:33:43.236Z,1.40
2023-03-11T03:35:16.435Z,1.30
2023-03-11T03:37:09.764Z,1.30
2023-03-11T03:38:42.997Z,1.20
2023-03-11T03:40:16.491Z,1.20
2023-03-11T03:41:49.573Z,1.20
2023-03-11T03:43:23.137Z,1.20
2023-03-11T03:44:56.608Z,1.20
2023-03-11T03:46:31.019Z,1.10
2023-03-11T03:48:05.939Z,1.10
2023-03-11T03:49:41.507Z,1.10
2023-03-11T03:51:15.471Z,1.10
2023-03-11T03:52:59.449Z,1.10
2023-03-11T03:54:33.336Z,1.20
2023-03-11T03:56:08.236Z,1.20
2023-03-11T03:57:42.279Z,1.20
2023-03-11T03:59:18.310Z,1.20
2023-03-11T04:00:57.255Z,1.20
2023-03-11T04:02:31.440Z,1.20
2023-03-11T04:04:05.105Z,1.20
2023-03-11T04:05:38.373Z,1.20
2023-03-11T04:07:11.483Z,1.20
2023-03-11T04:08:44.777Z,1.20
2023-03-11T04:10:18.416Z,1.10
2023-03-11T04:11:51.713Z,1.10
2023-03-11T04:13:24.183Z,1.10
2023-03-11T04:14:57.289Z,1.10
2023-03-11T04:16:29.587Z,1.00
2023-03-11T04:18:09.495Z,1.00
2023-03-11T04:19:42.901Z,1.00
2023-03-11T04:21:17.616Z,1.00
2023-03-11T04:22:51.447Z,0.90
2023-03-11T04:24:27.151Z,0.90
2023-03-11T04:26:02.055Z,0.90
2023-03-11T04:27:35.421Z,0.80
2023-03-11T04:29:10.423Z,0.80
2023-03-11T04:30:48.161Z,0.80
2023-03-11T04:32:22.642Z,0.90
2023-03-11T04:56:05.577Z,0.90
2023-03-11T05:10:23.232Z,1.00
2023-03-11T05:11:59.816Z,1.10
2023-03-11T05:13:32.818Z,1.50
2023-03-11T05:15:06.745Z,1.00
2023-03-11T05:16:40.212Z,0.90
2023-03-11T05:18:12.437Z,1.20
2023-03-11T05:19:45.706Z,1.10
2023-03-11T05:21:27.055Z,1.00
2023-03-11T05:23:00.525Z,1.10
2023-03-11T05:24:35.980Z,1.10
2023-03-11T05:26:09.263Z,1.00
2023-03-11T05:27:43.148Z,1.00
2023-03-11T05:29:16.577Z,1.10
2023-03-11T05:30:50.189Z,1.20
2023-03-11T05:32:24.030Z,1.00
2023-03-11T05:33:58.638Z,1.20
2023-03-11T05:35:31.816Z,1.10
2023-03-11T05:38:40.085Z,1.00
2023-03-11T05:40:13.887Z,1.00
2023-03-11T05:41:47.037Z,1.10
2023-03-11T05:43:20.785Z,1.10
2023-03-11T05:44:58.661Z,1.10
2023-03-11T05:46:33.345Z,1.10
2023-03-11T05:48:07.687Z,1.10
2023-03-11T05:49:42.766Z,1.10
2023-03-11T05:51:16.153Z,1.10
2023-03-11T05:52:52.386Z,1.10
2023-03-11T05:54:25.786Z,1.10
2023-03-11T05:55:59.847Z,1.10
2023-03-11T05:57:34.074Z,1.10
2023-03-11T05:59:07.603Z,1.10
2023-03-11T06:00:42.543Z,1.10
2023-03-11T06:02:15.680Z,1.10
2023-03-11T06:03:49.450Z,1.10
2023-03-11T06:05:22.829Z,1.10
2023-03-11T06:06:57.378Z,1.10
2023-03-11T06:08:35.860Z,1.10
2023-03-11T06:10:11.034Z,1.10
2023-03-11T06:11:44.830Z,1.10
2023-03-11T06:13:18.845Z,1.10
2023-03-11T06:14:57.784Z,1.10
2023-03-11T06:16:29.905Z,1.10
2023-03-11T06:18:06.546Z,1.10
2023-03-11T06:19:41.784Z,1.20
2023-03-11T06:21:18.984Z,1.10
2023-03-11T06:22:52.463Z,1.10
2023-03-11T06:24:30.029Z,1.10
2023-03-11T06:26:05.159Z,1.10
2023-03-11T06:27:44.659Z,1.20
2023-03-11T06:29:17.949Z,1.20
2023-03-11T06:30:51.730Z,1.20
2023-03-11T06:32:24.887Z,1.20
2023-03-11T06:33:59.295Z,1.20
2023-03-11T06:35:32.728Z,1.20
2023-03-11T06:37:05.894Z,1.20
2023-03-11T06:38:39.022Z,1.20
2023-03-11T06:40:14.346Z,1.20
2023-03-11T06:41:47.612Z,1.20
2023-03-11T06:43:20.891Z,1.20
2023-03-11T06:44:54.385Z,1.20
2023-03-11T06:46:27.631Z,1.30
2023-03-11T06:48:01.754Z,1.20
2023-03-11T06:49:36.989Z,1.20
2023-03-11T06:51:11.693Z,1.20
2023-03-11T06:52:44.885Z,1.20
2023-03-11T06:54:17.984Z,1.20
2023-03-11T06:56:01.919Z,1.20
2023-03-11T06:57:36.827Z,1.30
2023-03-11T06:59:12.674Z,1.30
2023-03-11T07:00:45.927Z,1.20
2023-03-11T07:02:18.990Z,1.20
2023-03-11T07:03:52.905Z,1.20
2023-03-11T07:05:27.833Z,1.20
2023-03-11T07:07:06.241Z,1.20
2023-03-11T07:08:39.328Z,1.30
2023-03-11T07:10:13.456Z,1.30
2023-03-11T07:11:48.033Z,1.20
2023-03-11T07:13:27.432Z,1.20
2023-03-11T07:15:01.061Z,1.30
2023-03-11T07:16:35.634Z,1.20
2023-03-11T07:18:14.346Z,1.20
2023-03-11T07:19:47.721Z,1.20
2023-03-11T07:21:22.464Z,1.20
2023-03-11T07:22:55.628Z,1.20
2023-03-11T07:24:28.738Z,1.20
2023-03-11T07:26:01.924Z,1.20
2023-03-11T07:27:36.342Z,1.20
2023-03-11T07:29:10.154Z,1.20
2023-03-11T07:30:44.498Z,1.20
2023-03-11T07:32:17.989Z,1.20
2023-03-11T07:33:51.641Z,1.20
2023-03-11T07:35:24.718Z,1.20
2023-03-11T07:36:57.779Z,1.20
2023-03-11T07:38:29.832Z,1.10
2023-03-11T07:40:02.908Z,1.10
2023-03-11T07:41:36.966Z,1.10
2023-03-11T07:43:11.852Z,1.10
2023-03-11T07:44:44.972Z,1.10
2023-03-11T07:46:19.873Z,1.20
2023-03-11T07:47:53.877Z,1.20
2023-03-11T07:49:26.989Z,1.20
2023-03-11T07:51:04.589Z,1.30
2023-03-11T07:52:38.011Z,1.20
2023-03-11T07:54:11.797Z,1.20
2023-03-11T07:55:44.927Z,1.20
2023-03-11T07:57:18.057Z,1.20
2023-03-11T07:58:52.871Z,1.20
2023-03-11T08:00:26.138Z,1.10
2023-03-11T08:01:59.338Z,1.20
2023-03-11T08:03:32.481Z,1.20
2023-03-11T08:05:06.270Z,1.20
2023-03-11T08:06:39.410Z,1.20
2023-03-11T08:08:12.950Z,1.10
2023-03-11T08:09:46.031Z,1.10
2023-03-11T08:11:20.715Z,1.10
2023-03-11T08:12:53.796Z,1.10
2023-03-11T08:14:28.520Z,1.10
2023-03-11T08:16:04.790Z,1.10
2023-03-11T08:17:37.846Z,1.00
2023-03-11T08:19:13.222Z,1.00
2023-03-11T08:20:46.344Z,1.00
2023-03-11T08:22:19.536Z,1.00
2023-03-11T08:23:53.138Z,1.10
2023-03-11T08:25:26.355Z,1.10
2023-03-11T08:26:59.457Z,1.10
2023-03-11T08:28:33.054Z,1.10
2023-03-11T08:30:08.899Z,1.10
2023-03-11T08:31:42.670Z,1.20
2023-03-11T08:33:15.775Z,1.20
2023-03-11T08:34:48.838Z,1.20
2023-03-11T08:36:22.165Z,1.30
2023-03-11T08:37:55.310Z,1.30
2023-03-11T08:39:28.448Z,1.30
2023-03-11T08:41:01.984Z,1.30
2023-03-11T08:42:37.076Z,1.30
2023-03-11T08:44:10.363Z,1.20
2023-03-11T08:45:45.127Z,1.10
2023-03-11T08:47:18.485Z,1.20
2023-03-11T08:48:51.620Z,1.20
2023-03-11T08:50:25.049Z,1.30
2023-03-11T08:51:58.168Z,1.30
2023-03-11T08:53:31.266Z,1.30
2023-03-11T08:55:05.167Z,1.40
2023-03-11T08:56:38.267Z,1.30
2023-03-11T08:58:11.737Z,1.40
2023-03-11T08:59:44.930Z,1.50
2023-03-11T09:01:20.227Z,1.40
2023-03-11T09:02:53.647Z,1.50
2023-03-11T09:04:26.861Z,1.50
2023-03-11T09:06:01.864Z,1.70
2023-03-11T09:07:35.448Z,1.70
2023-03-11T09:09:08.551Z,1.70
2023-03-11T09:10:41.632Z,1.60
2023-03-11T09:12:14.937Z,1.60
2023-03-11T09:13:48.038Z,1.60
2023-03-11T09:15:21.257Z,1.60
2023-03-11T09:16:55.756Z,1.60
2023-03-11T09:18:29.368Z,1.70
2023-03-11T09:20:02.492Z,1.60
2023-03-11T09:21:35.659Z,1.60
2023-03-11T09:23:09.080Z,1.60
2023-03-11T09:24:42.164Z,1.60
2023-03-11T09:26:16.046Z,1.60
2023-03-11T09:27:49.121Z,1.50
2023-03-11T09:29:22.327Z,1.40
2023-03-11T09:30:55.458Z,1.50
2023-03-11T09:32:30.102Z,1.40
2023-03-11T09:34:03.245Z,1.40
2023-03-11T09:35:36.456Z,1.30
2023-03-11T09:37:09.849Z,1.20
2023-03-11T09:38:43.289Z,1.10
2023-03-11T09:40:18.810Z,1.10
2023-03-11T09:41:58.814Z,1.10
2023-03-11T09:44:03.280Z,1.10
2023-03-11T09:45:40.078Z,1.10
2023-03-11T09:47:39.745Z,1.00
2023-03-11T09:49:24.168Z,1.10
2023-03-11T09:51:01.932Z,1.20
2023-03-11T09:52:40.817Z,1.20
2023-03-11T09:54:15.201Z,1.20
2023-03-11T09:55:51.355Z,1.20
2023-03-11T09:57:28.098Z,1.20
2023-03-11T09:59:06.169Z,1.30
2023-03-11T10:00:39.886Z,1.20
2023-03-11T10:02:16.669Z,1.20
2023-03-11T10:03:53.006Z,1.30
2023-03-11T10:05:29.081Z,1.40
2023-03-11T10:07:08.012Z,1.50
2023-03-11T10:08:46.737Z,1.50
2023-03-11T10:10:19.920Z,1.60
2023-03-11T10:12:03.600Z,1.60
2023-03-11T10:13:41.134Z,1.70
2023-03-11T10:15:23.892Z,1.70
2023-03-11T10:17:06.843Z,1.70
2023-03-11T10:18:53.592Z,1.80
2023-03-11T10:20:33.223Z,1.70
2023-03-11T10:22:13.841Z,1.70
2023-03-11T10:24:01.920Z,1.70
2023-03-11T10:25:46.664Z,1.70
2023-03-11T10:27:25.433Z,1.80
2023-03-11T10:29:03.425Z,1.90
2023-03-11T10:30:41.885Z,2.00
2023-03-11T10:32:19.803Z,2.10
2023-03-11T10:33:59.127Z,2.10
2023-03-11T10:35:39.173Z,2.30
2023-03-11T10:37:15.633Z,2.40
2023-03-11T10:38:51.804Z,2.50
2023-03-11T10:40:30.382Z,2.10
2023-03-11T10:42:05.182Z,2.20
2023-03-11T10:43:42.630Z,2.00
2023-03-11T10:45:16.473Z,2.20
2023-03-11T10:46:49.601Z,2.30
2023-03-11T10:48:23.488Z,2.40
2023-03-11T10:49:58.148Z,2.50
2023-03-11T10:51:36.312Z,2.40
2023-03-11T10:53:11.044Z,2.40
2023-03-11T10:54:47.820Z,2.50
2023-03-11T10:56:28.804Z,2.60
2023-03-11T10:58:12.926Z,2.50
2023-03-11T10:59:48.732Z,2.50
2023-03-11T11:01:22.260Z,2.40
2023-03-11T11:02:58.223Z,2.40
2023-03-11T11:04:36.523Z,2.50
2023-03-11T11:06:21.951Z,2.60
2023-03-11T11:08:05.493Z,2.50
2023-03-11T11:09:38.583Z,2.80
2023-03-11T11:11:22.780Z,3.00
2023-03-11T11:12:57.848Z,3.00
2023-03-11T11:14:53.777Z,3.00
2023-03-11T11:16:27.626Z,2.90
2023-03-11T11:18:04.572Z,2.80
2023-03-11T11:19:45.093Z,2.50
2023-03-11T11:21:32.222Z,2.20
2023-03-11T11:23:05.437Z,2.10
2023-03-11T11:24:46.142Z,2.10
2023-03-11T11:26:22.999Z,2.10
2023-03-11T11:27:57.275Z,2.00
2023-03-11T11:29:30.462Z,2.10
2023-03-11T11:31:06.127Z,2.10
2023-03-11T11:32:39.749Z,2.10
2023-03-11T11:34:30.945Z,2.10
2023-03-11T11:36:05.996Z,2.10
2023-03-11T11:37:43.483Z,2.00
2023-03-11T11:39:21.342Z,2.00
2023-03-11T11:40:57.719Z,2.00
2023-03-11T11:42:32.334Z,2.10
2023-03-11T11:44:07.969Z,2.20
2023-03-11T11:45:43.934Z,2.50
2023-03-11T11:47:20.448Z,2.50
2023-03-11T11:49:01.112Z,2.40
2023-03-11T11:50:37.221Z,2.40
2023-03-11T11:52:15.434Z,2.40
2023-03-11T11:53:53.883Z,2.20
2023-03-11T11:55:30.145Z,2.30
2023-03-11T11:57:12.839Z,2.20
2023-03-11T11:58:46.232Z,2.20
2023-03-11T12:00:21.680Z,2.30
2023-03-11T12:02:08.174Z,2.30
2023-03-11T12:04:01.192Z,2.50
2023-03-11T12:05:40.520Z,2.80
2023-03-11T12:07:34.483Z,3.10
2023-03-11T12:09:15.891Z,3.30
2023-03-11T12:10:55.881Z,3.40
2023-03-11T12:12:33.862Z,3.40
2023-03-11T12:14:13.467Z,3.20
2023-03-11T12:15:54.347Z,3.20
2023-03-11T12:17:31.332Z,3.10
2023-03-11T12:19:11.410Z,3.10
2023-03-11T12:20:49.050Z,2.90
2023-03-11T12:22:57.685Z,2.90
2023-03-11T12:24:50.882Z,2.80
2023-03-11T12:26:27.370Z,2.90
2023-03-11T12:28:10.603Z,2.70
2023-03-11T12:29:47.300Z,2.80
2023-03-11T12:31:21.875Z,2.80
2023-03-11T12:33:00.137Z,2.80
2023-03-11T12:34:36.236Z,2.80
2023-03-11T12:36:24.824Z,2.70
2023-03-11T12:38:06.682Z,2.60
2023-03-11T12:39:41.170Z,2.50
2023-03-11T12:41:30.880Z,2.40
2023-03-11T12:43:03.002Z,2.30
2023-03-11T12:44:36.113Z,2.20
2023-03-11T12:46:10.003Z,2.20
2023-03-11T12:47:43.302Z,2.20
2023-03-11T12:49:15.454Z,2.30
2023-03-11T12:50:49.375Z,2.50
2023-03-11T12:52:27.941Z,2.60
2023-03-11T12:54:22.248Z,2.60
2023-03-11T12:56:07.176Z,2.60
2023-03-11T12:57:51.171Z,2.50
2023-03-11T12:59:56.074Z,2.50
2023-03-11T13:02:01.944Z,2.40
2023-03-11T13:03:46.180Z,2.30
2023-03-11T13:05:26.928Z,2.30
2023-03-11T13:07:43.388Z,2.10
2023-03-11T13:09:17.919Z,2.00
2023-03-11T13:10:52.816Z,1.90
2023-03-11T13:12:42.540Z,1.80
2023-03-11T13:14:33.897Z,1.80
2023-03-11T13:16:39.627Z,1.80
2023-03-11T13:18:24.633Z,1.90
2023-03-11T13:19:58.953Z,1.90
2023-03-11T13:21:41.280Z,1.80
2023-03-11T13:23:26.698Z,1.80
2023-03-11T13:25:19.649Z,1.70
2023-03-11T13:26:58.035Z,1.50
2023-03-11T13:29:03.308Z,1.40
2023-03-11T13:30:43.841Z,1.30
2023-03-11T13:32:35.780Z,1.40
2023-03-11T13:34:16.442Z,1.60
2023-03-11T13:36:08.607Z,2.10
2023-03-11T13:37:51.025Z,2.10
2023-03-11T13:39:46.581Z,2.00
2023-03-11T13:41:28.716Z,2.00
2023-03-11T13:43:05.600Z,2.00
2023-03-11T13:44:42.173Z,2.00
2023-03-11T13:46:25.629Z,1.90
2023-03-11T13:48:02.772Z,2.00
2023-03-11T13:49:41.072Z,2.10
2023-03-11T13:51:18.889Z,2.00
2023-03-11T13:52:54.403Z,2.00
2023-03-11T13:54:40.414Z,2.00
2023-03-11T13:56:19.236Z,2.50
2023-03-11T13:57:53.951Z,3.10
2023-03-11T13:59:31.084Z,3.30
2023-03-11T14:01:05.788Z,3.10
2023-03-11T14:02:38.988Z,3.00
2023-03-11T14:04:12.444Z,3.00
2023-03-11T14:05:47.713Z,2.80
2023-03-11T14:07:31.754Z,2.80
2023-03-11T14:09:06.147Z,2.60
2023-03-11T14:10:39.413Z,2.50
2023-03-11T14:12:13.173Z,2.40
2023-03-11T14:13:47.458Z,2.30
2023-03-11T14:15:24.270Z,2.40
2023-03-11T14:17:01.516Z,2.40
2023-03-11T14:18:37.821Z,2.40
2023-03-11T14:20:16.891Z,2.50
2023-03-11T14:21:52.376Z,2.50
2023-03-11T14:23:29.393Z,2.40
2023-03-11T14:25:07.034Z,2.50
2023-03-11T14:26:44.152Z,2.50
2023-03-11T14:28:21.607Z,2.30
2023-03-11T14:29:54.983Z,2.30
2023-03-11T14:31:32.501Z,2.30
2023-03-11T14:33:21.392Z,2.40
2023-03-11T14:34:54.575Z,2.40
2023-03-11T14:36:27.649Z,2.40
2023-03-11T14:38:01.230Z,2.40
2023-03-11T14:39:36.092Z,2.50
2023-03-11T14:41:16.025Z,2.50
2023-03-11T14:42:53.762Z,2.60
2023-03-11T14:44:28.751Z,2.70
2023-03-11T14:46:03.480Z,2.70
2023-03-11T14:47:42.769Z,2.80
2023-03-11T14:49:21.580Z,2.80
2023-03-11T14:50:56.485Z,2.80
2023-03-11T14:52:37.233Z,3.10
2023-03-11T14:54:18.937Z,3.10
2023-03-11T14:55:55.727Z,2.90
2023-03-11T14:57:37.681Z,2.80
2023-03-11T14:59:16.059Z,2.80
2023-03-11T15:00:52.172Z,2.70
2023-03-11T15:02:35.761Z,2.70
2023-03-11T15:04:13.130Z,2.80
2023-03-11T15:05:51.449Z,2.80
2023-03-11T15:07:24.783Z,2.80
2023-03-11T15:09:01.816Z,2.80
2023-03-11T15:10:36.955Z,2.70
2023-03-11T15:12:33.320Z,2.70
2023-03-11T15:14:21.533Z,2.70
2023-03-11T15:15:58.762Z,2.60
2023-03-11T15:17:41.272Z,2.60
2023-03-11T15:19:31.868Z,2.60
2023-03-11T15:21:15.919Z,2.50
2023-03-11T15:22:58.187Z,2.50
2023-03-11T15:24:33.484Z,2.60
2023-03-11T15:26:07.435Z,2.50
2023-03-11T15:27:40.714Z,2.50
2023-03-11T15:29:16.611Z,2.50
2023-03-11T15:30:49.808Z,2.40
2023-03-11T15:32:36.943Z,2.40
2023-03-11T15:34:27.778Z,2.40
2023-03-11T15:36:01.374Z,2.50
2023-03-11T15:37:36.670Z,2.50
2023-03-11T15:39:15.904Z,2.40
2023-03-11T15:40:54.158Z,2.50
2023-03-11T15:42:27.651Z,2.50
2023-03-11T15:44:03.053Z,2.50
2023-03-11T15:45:38.082Z,2.60
2023-03-11T15:47:15.491Z,2.50
2023-03-11T15:48:48.883Z,2.50
2023-03-11T15:50:28.620Z,2.50
2023-03-11T15:52:08.361Z,2.50
2023-03-11T15:53:42.841Z,2.50
2023-03-11T15:55:16.121Z,2.50
2023-03-11T15:56:49.374Z,2.50
2023-03-11T15:58:22.712Z,2.60
2023-03-11T15:59:58.236Z,2.50
2023-03-11T16:01:31.596Z,2.60
2023-03-11T16:03:05.349Z,2.60
2023-03-11T16:04:38.576Z,2.50
2023-03-11T16:06:11.819Z,2.50
2023-03-11T16:07:44.942Z,2.50
2023-03-11T16:09:19.327Z,2.50
2023-03-11T16:10:52.524Z,2.40
2023-03-11T16:12:25.586Z,2.40
2023-03-11T16:13:58.658Z,2.40
2023-03-11T16:15:33.393Z,2.30
2023-03-11T16:17:06.978Z,2.30
2023-03-11T16:18:40.044Z,2.30
2023-03-11T16:20:13.798Z,2.30
2023-03-11T16:21:50.549Z,2.30
2023-03-11T16:23:26.434Z,2.30
2023-03-11T16:25:02.186Z,2.30
2023-03-11T16:26:36.108Z,2.30
2023-03-11T16:28:12.402Z,2.30
2023-03-11T16:29:45.813Z,2.30
2023-03-11T16:31:18.923Z,2.30
2023-03-11T16:32:52.254Z,2.20
2023-03-11T16:34:25.418Z,2.20
2023-03-11T16:35:58.692Z,2.20
2023-03-11T16:37:31.748Z,2.10
2023-03-11T16:39:05.020Z,2.10
2023-03-11T16:40:39.576Z,2.10
2023-03-11T16:42:12.672Z,2.10
2023-03-11T16:43:46.311Z,2.10
2023-03-11T16:45:19.709Z,2.10
2023-03-11T16:46:52.828Z,2.10
2023-03-11T16:48:26.187Z,2.10
2023-03-11T16:49:59.232Z,2.10
2023-03-11T16:51:32.618Z,2.10
2023-03-11T16:53:06.012Z,2.00
2023-03-11T16:54:39.098Z,2.00
2023-03-11T16:56:13.490Z,2.00
2023-03-11T16:57:46.608Z,2.00
2023-03-11T16:59:19.671Z,2.00
2023-03-11T17:00:52.980Z,1.90
2023-03-11T17:02:26.012Z,1.90
2023-03-11T17:03:59.207Z,1.80
2023-03-11T17:05:32.251Z,1.80
2023-03-11T17:07:05.912Z,1.80
2023-03-11T17:08:38.953Z,1.70
2023-03-11T17:10:13.996Z,1.80
2023-03-11T17:11:49.885Z,1.80
2023-03-11T17:13:23.232Z,1.80
2023-03-11T17:14:56.978Z,1.70
2023-03-11T17:16:32.526Z,1.70
2023-03-11T17:18:05.673Z,1.60
2023-03-11T17:19:39.201Z,1.60
2023-03-11T17:21:14.557Z,1.60
2023-03-11T17:22:47.803Z,1.60
2023-03-11T17:24:20.840Z,1.50
2023-03-11T17:25:54.024Z,1.50
2023-03-11T17:27:32.192Z,1.50
2023-03-11T17:29:06.293Z,1.40
2023-03-11T17:30:43.476Z,1.40
2023-03-11T17:32:17.552Z,1.30
2023-03-11T17:33:50.768Z,1.20
2023-03-11T17:35:23.884Z,1.10
2023-03-11T17:36:57.660Z,1.10
2023-03-11T17:38:30.865Z,1.00
2023-03-11T17:40:04.341Z,1.00
2023-03-11T17:41:37.575Z,1.00
2023-03-11T17:43:12.138Z,1.00
2023-03-11T17:44:51.708Z,1.00
2023-03-11T17:46:25.409Z,0.90
2023-03-11T17:47:58.824Z,1.00
2023-03-11T17:49:31.916Z,1.00
2023-03-11T17:51:10.086Z,1.00
2023-03-11T17:52:43.161Z,1.00
2023-03-11T17:54:16.500Z,1.00
2023-03-11T17:55:49.547Z,1.00
2023-03-11T17:57:22.615Z,0.90
2023-03-11T17:58:58.566Z,0.90
2023-03-11T18:00:31.729Z,0.90
2023-03-11T18:02:04.983Z,0.90
2023-03-11T18:03:38.094Z,0.80
2023-03-11T18:05:11.395Z,0.80
2023-03-11T18:06:44.480Z,0.70
2023-03-11T18:08:17.488Z,0.70
2023-03-11T18:09:52.647Z,0.80
2023-03-11T18:11:28.541Z,0.70
2023-03-11T18:13:01.635Z,0.60
2023-03-11T18:14:37.254Z,0.60
2023-03-11T18:16:13.187Z,0.60
2023-03-11T18:17:46.564Z,0.50
2023-03-11T18:19:19.621Z,0.60
2023-03-11T18:20:52.778Z,0.50
2023-03-11T18:22:26.176Z,0.50
2023-03-11T18:24:01.069Z,0.50
2023-03-11T18:25:34.142Z,0.40
2023-03-11T18:27:07.239Z,0.40
2023-03-11T18:28:41.745Z,0.30
2023-03-11T18:30:16.573Z,0.20
2023-03-11T18:31:49.683Z,0.10
2023-03-11T18:33:22.983Z,0.00
2023-03-11T18:34:56.111Z,-0.10
2023-03-11T18:36:31.417Z,-0.20
2023-03-11T18:38:04.453Z,-0.20
2023-03-11T18:39:37.713Z,-0.30
2023-03-11T18:41:11.307Z,-0.30
2023-03-11T18:42:44.363Z,-0.40
2023-03-11T18:44:17.516Z,-0.40
2023-03-11T18:45:51.954Z,-0.40
2023-03-11T18:47:25.105Z,-0.40
2023-03-11T18:48:59.708Z,-0.40
2023-03-11T18:50:32.862Z,-0.30
2023-03-11T18:52:06.393Z,-0.40
2023-03-11T18:53:41.810Z,-0.50
2023-03-11T18:55:15.819Z,-0.50
2023-03-11T18:56:49.732Z,-0.50
2023-03-11T18:58:22.843Z,-0.50
2023-03-11T18:59:56.783Z,-0.50
2023-03-11T19:01:31.868Z,-0.50
2023-03-11T19:03:05.009Z,-0.50
2023-03-11T19:04:38.145Z,-0.50
2023-03-11T19:06:12.829Z,-0.50
2023-03-11T19:07:45.870Z,-0.60
2023-03-11T19:09:19.367Z,-0.70
2023-03-11T19:10:52.509Z,-0.60
2023-03-11T19:12:29.200Z,-0.40
2023-03-11T19:14:02.362Z,-0.30
2023-03-11T19:15:38.950Z,-0.30
2023-03-11T19:17:16.354Z,-0.30
2023-03-11T19:18:50.189Z,-0.20
2023-03-11T19:20:25.938Z,-0.30
2023-03-11T19:21:58.980Z,-0.30
2023-03-11T19:23:32.387Z,-0.40
2023-03-11T19:25:06.291Z,-0.50
2023-03-11T19:26:45.172Z,-0.60
2023-03-11T19:28:19.056Z,-0.80
2023-03-11T19:29:52.386Z,-1.00
2023-03-11T19:31:25.407Z,-1.00
2023-03-11T19:32:59.867Z,-1.00
2023-03-11T19:34:32.934Z,-1.00
2023-03-11T19:36:08.788Z,-1.10
2023-03-11T19:37:41.921Z,-1.10
2023-03-11T19:39:14.019Z,-0.90
2023-03-11T19:40:47.616Z,-0.90
2023-03-11T19:42:20.772Z,-0.80
2023-03-11T19:43:53.834Z,-0.80
2023-03-11T19:45:27.181Z,-0.90
2023-03-11T19:47:00.342Z,-0.90
2023-03-11T19:48:35.294Z,-0.80
2023-03-11T19:50:09.879Z,-0.80
2023-03-11T19:51:50.154Z,-0.90
2023-03-11T19:53:24.363Z,-0.90
2023-03-11T19:54:57.430Z,-1.00
2023-03-11T19:56:30.541Z,-1.10
2023-03-11T19:58:03.613Z,-1.30
2023-03-11T19:59:36.750Z,-1.30
2023-03-11T20:01:16.620Z,-1.40
2023-03-11T20:02:49.694Z,-1.50
2023-03-11T20:04:24.270Z,-1.40
2023-03-11T20:05:59.668Z,-1.40
2023-03-11T20:07:34.091Z,-1.40
2023-03-11T20:09:07.369Z,-1.30
2023-03-11T20:10:42.442Z,-1.30
2023-03-11T20:12:15.550Z,-1.40
2023-03-11T20:13:48.748Z,-1.40
2023-03-11T20:15:21.877Z,-1.60
2023-03-11T20:16:54.941Z,-1.70
2023-03-11T20:18:28.043Z,-1.70
2023-03-11T20:20:02.561Z,-1.80
2023-03-11T21:08:30.800Z,-2.20
2023-03-11T21:10:07.080Z,-2.00
2023-03-11T21:11:40.174Z,-2.20
2023-03-11T21:13:13.294Z,-2.30
2023-03-11T21:14:46.478Z,-2.30
2023-03-11T21:16:20.398Z,-2.30
2023-03-11T21:17:53.659Z,-2.30
2023-03-11T21:21:00.686Z,-2.50
2023-03-11T21:22:35.277Z,-2.50
2023-03-11T21:24:08.995Z,-2.60
2023-03-11T21:25:43.566Z,-2.60
2023-03-11T21:27:16.949Z,-2.50
2023-03-11T21:28:50.350Z,-2.40
2023-03-11T21:30:23.467Z,-2.30
2023-03-11T21:31:56.623Z,-1.90
2023-03-11T21:33:30.197Z,-1.70
2023-03-11T21:35:03.987Z,-1.70
2023-03-11T21:36:37.830Z,-1.40
2023-03-11T21:38:12.516Z,-1.10
2023-03-11T21:39:45.638Z,-1.00
2023-03-11T21:41:20.866Z,-1.00
2023-03-11T21:42:53.976Z,-0.90
2023-03-11T21:44:28.447Z,-0.80
2023-03-11T21:46:01.892Z,-0.90
2023-03-11T21:47:36.771Z,-1.00
2023-03-11T21:49:10.049Z,-1.30
2023-03-11T21:50:43.204Z,-1.40
2023-03-11T21:52:16.474Z,-1.50
2023-03-11T21:53:51.456Z,-1.70
2023-03-11T21:55:24.709Z,-1.80
2023-03-11T21:56:58.152Z,-1.90
2023-03-11T21:58:30.573Z,-1.90
2023-03-11T22:00:06.139Z,-2.10
2023-03-11T22:01:39.399Z,-2.00
2023-03-11T22:03:12.636Z,-2.10
2023-03-11T22:04:46.159Z,-2.10
2023-03-11T22:06:19.442Z,-2.30
2023-03-11T22:07:52.964Z,-2.30
2023-03-11T22:09:27.535Z,-2.30
2023-03-11T22:11:01.189Z,-2.40
2023-03-11T22:12:34.258Z,-2.50
2023-03-11T22:14:07.451Z,-2.60
2023-03-11T22:15:40.567Z,-2.80
2023-03-11T22:17:13.802Z,-2.80
2023-03-11T22:18:47.486Z,-2.90
2023-03-11T22:20:20.722Z,-2.90
2023-03-11T22:21:54.060Z,-2.90
2023-03-11T22:23:26.274Z,-3.00
2023-03-11T22:25:00.737Z,-3.00
2023-03-11T22:28:10.361Z,-3.40
2023-03-11T22:29:44.311Z,-3.40
2023-03-11T22:31:18.938Z,-3.30
2023-03-11T22:32:52.106Z,-3.30
2023-03-11T22:34:25.255Z,-3.30
2023-03-11T22:35:59.346Z,-3.40
2023-03-11T22:37:32.536Z,-3.30
2023-03-11T22:39:05.778Z,-3.30
2023-03-11T22:40:40.224Z,-3.30
2023-03-11T22:42:13.346Z,-3.40
2023-03-11T22:43:46.954Z,-3.30
2023-03-11T22:45:22.244Z,-3.30
2023-03-11T22:46:55.384Z,-3.30
2023-03-11T22:48:29.500Z,-3.30
2023-03-11T22:50:02.666Z,-3.30
2023-03-11T22:51:35.768Z,-3.40
2023-03-11T22:53:09.471Z,-3.30